Time;durP1;ratioP1;P1;durP2;ratioP2;P2;SDS_P1;SDS_P2;PMS_P1;PMS_P2;Temp;Humidity;BMP_temperature;BMP_pressure;BME280_temperature;BME280_humidity;BME280_pressure;Samples;Min_cycle;Max_cycle;Signal;HPM_P1;HPM_P2
2022/11/12 00:00:31;;;;;;;1.25;1.17;;;7.10;99.90;;;;;;5026984;28;20069;-82
2022/11/12 00:02:57;;;;;;;0.95;0.95;;;7.50;99.90;;;;;;5025600;28;20076;-82
2022/11/12 00:05:24;;;;;;;0.40;0.40;;;7.10;99.90;;;;;;5006929;28;20072;-82
2022/11/12 00:07:49;;;;;;;;;;;7.10;99.90;;;;;;5025300;28;20131;-82
2022/11/12 00:10:16;;;;;;;0.68;0.68;;;7.10;99.90;;;;;;5026615;28;19933;-82
2022/11/12 00:12:42;;;;;;;0.85;0.85;;;7.20;99.90;;;;;;5026421;28;20490;-82
2022/11/12 00:15:08;;;;;;;0.50;0.50;;;7.10;99.90;;;;;;5026080;28;20065;-83
2022/11/12 00:17:33;;;;;;;0.75;0.75;;;7.10;99.90;;;;;;5018833;28;20255;-81
2022/11/12 00:19:59;;;;;;;0.63;0.63;;;7.00;99.90;;;;;;5020014;28;20172;-83
2022/11/12 00:22:25;;;;;;;;;;;7.00;99.90;;;;;;5026860;28;20063;-82
2022/11/12 00:24:51;;;;;;;0.80;0.80;;;7.10;99.90;;;;;;5008371;28;19921;-82
2022/11/12 00:27:16;;;;;;;2.05;1.95;;;7.10;99.90;;;;;;5026373;28;20041;-83
2022/11/12 00:29:42;;;;;;;0.52;0.52;;;7.10;99.90;;;;;;5010664;28;20041;-83
2022/11/12 00:32:08;;;;;;;0.68;0.68;;;7.00;99.90;;;;;;5006744;28;20115;-83
2022/11/12 00:34:34;;;;;;;;;;;6.90;99.90;;;;;;5007356;28;20170;-82
2022/11/12 00:37:00;;;;;;;0.57;0.57;;;6.90;99.90;;;;;;5022767;28;20031;-83
2022/11/12 00:39:27;;;;;;;0.68;0.68;;;6.90;99.90;;;;;;5021468;28;20048;-82
2022/11/12 00:41:54;;;;;;;1.38;1.38;;;6.80;99.90;;;;;;5021857;28;20073;-82
2022/11/12 00:44:20;;;;;;;0.47;0.47;;;6.80;99.90;;;;;;5020986;28;20383;-81
2022/11/12 00:46:46;;;;;;;0.60;0.60;;;6.80;99.90;;;;;;5020842;28;20084;-82
2022/11/12 00:49:12;;;;;;;0.70;0.70;;;6.80;99.90;;;;;;5025770;28;20064;-82
2022/11/12 00:51:38;;;;;;;1.75;0.85;;;6.80;99.90;;;;;;5020085;28;20073;-81
2022/11/12 00:54:04;;;;;;;0.60;0.60;;;6.80;99.90;;;;;;5021972;28;20538;-82
2022/11/12 00:56:30;;;;;;;;;;;6.80;99.90;;;;;;5025702;28;20046;-82
2022/11/12 00:58:57;;;;;;;0.50;0.50;;;6.70;99.90;;;;;;5021967;28;19924;-83
2022/11/12 01:01:23;;;;;;;0.60;0.60;;;6.80;99.90;;;;;;5005594;28;20053;-82
2022/11/12 01:03:48;;;;;;;0.70;0.70;;;6.80;99.90;;;;;;5019622;28;20107;-83
2022/11/12 01:06:22;;;;;;;0.73;0.73;;;6.80;99.90;;;;;;5022933;28;20033;-82
2022/11/12 01:08:48;;;;;;;0.93;0.75;;;6.80;99.90;;;;;;5023868;28;20080;-82
2022/11/12 01:11:16;;;;;;;0.60;0.60;;;6.70;99.90;;;;;;5023111;28;20034;-82
2022/11/12 01:13:44;;;;;;;0.73;0.73;;;6.70;99.90;;;;;;5022288;28;20180;-82
2022/11/12 01:16:16;;;;;;;0.55;0.55;;;6.70;99.90;;;;;;5022473;28;20037;-81
2022/11/12 01:18:42;;;;;;;0.90;0.90;;;6.60;99.90;;;;;;5021166;28;20041;-82
2022/11/12 01:21:08;;;;;;;0.80;0.80;;;6.70;99.90;;;;;;5016421;28;20057;-82
2022/11/12 01:23:35;;;;;;;;;;;6.50;99.90;;;;;;5019884;28;20051;-82
2022/11/12 01:26:05;;;;;;;0.47;0.47;;;6.50;99.90;;;;;;5017322;28;19940;-83
2022/11/12 01:28:31;;;;;;;0.60;0.60;;;6.50;99.90;;;;;;5003926;28;20091;-82
2022/11/12 01:30:57;;;;;;;0.50;0.50;;;6.50;99.90;;;;;;5000860;28;21146;-83
2022/11/12 01:33:22;;;;;;;0.50;0.50;;;6.40;99.90;;;;;;5020877;28;20041;-82
2022/11/12 01:35:48;;;;;;;0.57;0.57;;;6.40;99.90;;;;;;5019089;28;20540;-82
2022/11/12 01:38:14;;;;;;;0.45;0.45;;;6.30;99.90;;;;;;5022531;28;20045;-82
2022/11/12 01:40:39;;;;;;;0.55;0.55;;;6.70;99.90;;;;;;5002185;28;20045;-83
2022/11/12 01:43:12;;;;;;;1.02;1.02;;;6.30;99.90;;;;;;5021244;28;20057;-82
2022/11/12 01:45:45;;;;;;;0.52;0.52;;;6.20;99.90;;;;;;5022348;28;20047;-81
2022/11/12 01:48:27;;;;;;;2.13;0.68;;;6.10;99.90;;;;;;5018383;28;20518;-82
2022/11/12 01:50:53;;;;;;;0.40;0.40;;;6.00;99.90;;;;;;5017065;28;20034;-82
2022/11/12 01:53:20;;;;;;;;;;;6.00;99.90;;;;;;5036692;28;20049;-81
2022/11/12 01:55:45;;;;;;;0.45;0.45;;;6.00;99.90;;;;;;5024011;28;20271;-83
2022/11/12 01:58:13;;;;;;;0.60;0.60;;;5.90;99.90;;;;;;5006593;28;20045;-82
2022/11/12 02:00:40;;;;;;;0.50;0.50;;;6.00;99.90;;;;;;5020948;28;20065;-82
2022/11/12 02:03:17;;;;;;;0.40;0.40;;;5.80;99.90;;;;;;5021453;28;20050;-82
2022/11/12 02:05:46;;;;;;;1.05;1.05;;;5.80;99.90;;;;;;5021395;28;20491;-83
2022/11/12 02:08:12;;;;;;;0.60;0.60;;;5.80;99.90;;;;;;5004561;28;20041;-81
2022/11/12 02:10:38;;;;;;;;;;;5.90;99.90;;;;;;5005530;28;20042;-82
2022/11/12 02:15:49;;;;;;;0.80;0.80;;;5.90;99.90;;;;;;5034815;28;20465;-81
2022/11/12 02:18:15;;;;;;;0.50;0.50;;;5.50;99.90;;;;;;5018753;28;20045;-83
2022/11/12 02:20:40;;;;;;;0.60;0.60;;;5.50;99.90;;;;;;5020533;28;20041;-81
2022/11/12 02:23:06;;;;;;;0.70;0.70;;;5.50;99.90;;;;;;5019353;28;20034;-82
2022/11/12 02:25:33;;;;;;;0.50;0.50;;;5.50;99.90;;;;;;5021072;28;20037;-81
2022/11/12 02:28:01;;;;;;;0.60;0.60;;;5.40;99.90;;;;;;5004067;28;20037;-83
2022/11/12 02:30:38;;;;;;;0.88;0.88;;;5.40;99.90;;;;;;5019912;28;20041;-81
2022/11/12 02:33:04;;;;;;;0.43;0.43;;;5.40;99.90;;;;;;5037704;28;20044;-82
2022/11/12 02:35:30;;;;;;;0.55;0.55;;;5.30;99.90;;;;;;5021870;28;20049;-82
2022/11/12 02:37:56;;;;;;;;;;;5.30;99.90;;;;;;5021546;28;20397;-81
2022/11/12 02:40:22;;;;;;;0.50;0.50;;;5.30;99.90;;;;;;5023432;28;19917;-82
2022/11/12 02:42:48;;;;;;;0.70;0.70;;;5.90;99.90;;;;;;5022093;28;20056;-82
2022/11/12 02:45:14;;;;;;;0.70;0.70;;;5.30;99.90;;;;;;5021113;28;20041;-82
2022/11/12 02:47:40;;;;;;;0.60;0.60;;;5.20;99.90;;;;;;5019925;28;20029;-82
2022/11/12 02:50:07;;;;;;;0.60;0.60;;;5.20;99.90;;;;;;5018488;28;20092;-81
2022/11/12 02:52:33;;;;;;;0.60;0.60;;;5.20;99.90;;;;;;5000269;28;20506;-82
2022/11/12 02:54:59;;;;;;;0.60;0.60;;;5.10;99.90;;;;;;5002899;28;20045;-82
2022/11/12 02:57:25;;;;;;;0.70;0.70;;;5.10;99.90;;;;;;5032018;28;20041;-81
2022/11/12 02:59:51;;;;;;;;;;;5.10;99.90;;;;;;5022990;28;20525;-81
2022/11/12 03:02:16;;;;;;;0.65;0.65;;;5.20;99.90;;;;;;5001258;28;20011;-80
2022/11/12 03:04:42;;;;;;;3.05;2.80;;;5.10;99.90;;;;;;5001603;28;20755;-81
2022/11/12 03:07:09;;;;;;;0.60;0.60;;;5.00;99.90;;;;;;5039496;28;20339;-81
2022/11/12 03:09:35;;;;;;;0.70;0.70;;;5.00;99.90;;;;;;5020276;28;20455;-81
2022/11/12 03:12:01;;;;;;;0.70;0.70;;;5.00;99.90;;;;;;5021262;28;20538;-81
2022/11/12 03:14:26;;;;;;;0.60;0.60;;;5.00;99.90;;;;;;5020860;28;20057;-81
2022/11/12 03:16:58;;;;;;;0.60;0.60;;;4.90;99.90;;;;;;5019262;28;20536;-81
2022/11/12 03:19:23;;;;;;;0.50;0.50;;;4.80;99.90;;;;;;5023249;28;20045;-81
2022/11/12 03:21:49;;;;;;;0.70;0.70;;;4.80;99.90;;;;;;5006914;28;20053;-82
2022/11/12 03:24:15;;;;;;;0.70;0.70;;;4.80;99.90;;;;;;5025432;28;20037;-82
2022/11/12 03:26:40;;;;;;;0.80;0.80;;;4.80;99.90;;;;;;5024517;28;20249;-81
2022/11/12 03:29:06;;;;;;;0.85;0.85;;;4.90;99.90;;;;;;5009744;28;20060;-82
2022/11/12 03:31:32;;;;;;;0.70;0.70;;;4.90;99.90;;;;;;5005331;28;20118;-81
2022/11/12 03:33:58;;;;;;;0.80;0.80;;;4.90;99.90;;;;;;5008745;28;20845;-82
2022/11/12 03:36:27;;;;;;;0.70;0.70;;;5.10;99.90;;;;;;5024097;28;20045;-80
2022/11/12 03:38:52;;;;;;;0.60;0.60;;;5.00;99.90;;;;;;5021219;28;20388;-80
2022/11/12 03:41:18;;;;;;;0.60;0.60;;;4.90;99.90;;;;;;5024769;28;20045;-82
2022/11/12 03:43:44;;;;;;;0.50;0.50;;;4.90;99.90;;;;;;5021033;28;20461;-80
2022/11/12 03:46:15;;;;;;;0.60;0.60;;;4.90;99.90;;;;;;5002022;28;20276;-81
2022/11/12 03:48:41;;;;;;;0.60;0.60;;;4.90;99.90;;;;;;5020987;28;20376;-82
2022/11/12 03:51:07;;;;;;;0.60;0.60;;;4.90;99.90;;;;;;5035233;28;20055;-82
2022/11/12 03:53:32;;;;;;;2.40;1.35;;;5.00;99.90;;;;;;5029216;28;20136;-82
2022/11/12 03:55:58;;;;;;;0.52;0.52;;;4.90;99.90;;;;;;5022658;28;20046;-82
2022/11/12 03:58:29;;;;;;;0.57;0.57;;;5.00;99.90;;;;;;5024093;28;20095;-82
2022/11/12 04:00:56;;;;;;;0.60;0.60;;;4.90;99.90;;;;;;5003748;28;20049;-81
2022/11/12 04:03:23;;;;;;;1.48;1.15;;;5.00;99.90;;;;;;5024321;28;20124;-82
2022/11/12 04:08:39;;;;;;;0.55;0.55;;;4.90;99.90;;;;;;5004740;28;20403;-83
2022/11/12 04:11:16;;;;;;;0.70;0.70;;;5.20;99.90;;;;;;5037586;28;20048;-83
2022/11/12 04:13:46;;;;;;;0.60;0.60;;;4.80;99.90;;;;;;5021964;28;20098;-81
2022/11/12 04:21:50;;;;;;;0.60;0.60;;;4.80;99.90;;;;;;5036701;28;20119;-82
2022/11/12 04:27:34;;;;;;;0.60;0.60;;;4.70;99.90;;;;;;5022286;28;20107;-82
2022/11/12 04:30:15;;;;;;;0.70;0.70;;;4.60;99.90;;;;;;5023059;28;20045;-81
2022/11/12 04:32:47;;;;;;;0.60;0.60;;;4.50;99.90;;;;;;5022700;28;20372;-80
2022/11/12 04:35:13;;;;;;;0.55;0.55;;;4.50;99.90;;;;;;5020420;28;20486;-80
2022/11/12 04:37:45;;;;;;;0.63;0.63;;;3.80;99.90;;;;;;5003019;28;20048;-81
2022/11/12 04:46:02;;;;;;;0.70;0.70;;;5.20;99.90;;;;;;5034534;28;20068;-81
2022/11/12 04:48:28;;;;;;;0.60;0.60;;;4.20;99.90;;;;;;5017217;28;20045;-81
2022/11/12 04:50:57;;;;;;;0.63;0.63;;;4.20;99.90;;;;;;5019873;28;20037;-82
2022/11/12 04:53:23;;;;;;;0.68;0.68;;;4.20;99.90;;;;;;5019336;28;20506;-81
2022/11/12 04:55:54;;;;;;;0.60;0.60;;;4.20;99.90;;;;;;5024600;28;20037;-81
2022/11/12 04:58:20;;;;;;;0.60;0.60;;;4.10;99.90;;;;;;5007804;28;20052;-80
2022/11/12 05:00:47;;;;;;;0.70;0.70;;;4.00;99.90;;;;;;5021107;28;20073;-82
2022/11/12 05:03:13;;;;;;;0.75;0.75;;;4.50;99.90;;;;;;5003340;28;20056;-80
2022/11/12 05:05:39;;;;;;;1.13;1.08;;;4.00;99.90;;;;;;5020965;28;20041;-80
2022/11/12 05:08:04;;;;;;;0.50;0.50;;;4.10;99.90;;;;;;5017518;28;20045;-81
2022/11/12 05:10:31;;;;;;;0.70;0.70;;;4.00;99.90;;;;;;5023556;28;20052;-80
2022/11/12 05:12:57;;;;;;;0.70;0.70;;;4.10;99.90;;;;;;5006398;28;20037;-81
2022/11/12 05:15:23;;;;;;;0.75;0.75;;;4.10;99.90;;;;;;5006937;28;20406;-82
2022/11/12 05:17:49;;;;;;;0.80;0.80;;;4.30;99.90;;;;;;5037593;28;20041;-81
2022/11/12 05:20:16;;;;;;;0.60;0.60;;;4.30;99.90;;;;;;5019159;28;20556;-81
2022/11/12 05:22:41;;;;;;;0.70;0.70;;;4.30;99.90;;;;;;5020198;28;20490;-82
2022/11/12 05:25:07;;;;;;;0.68;0.68;;;4.40;99.90;;;;;;5025921;28;20038;-82
2022/11/12 05:27:34;;;;;;;0.70;0.70;;;4.40;99.90;;;;;;5009876;28;20034;-82
2022/11/12 05:30:00;;;;;;;2.25;2.15;;;4.50;99.90;;;;;;5024159;28;20034;-82
2022/11/12 05:32:26;;;;;;;0.60;0.60;;;4.50;99.90;;;;;;5007170;28;20069;-81
2022/11/12 05:34:52;;;;;;;0.70;0.70;;;4.60;99.90;;;;;;5022444;28;20815;-80
2022/11/12 05:37:19;;;;;;;0.60;0.60;;;4.60;99.90;;;;;;5023904;28;20038;-81
2022/11/12 05:39:44;;;;;;;0.63;0.63;;;4.70;99.90;;;;;;5025717;28;20859;-81
2022/11/12 05:42:10;;;;;;;0.70;0.70;;;4.80;99.90;;;;;;5010879;28;20045;-81
2022/11/12 05:44:36;;;;;;;;;;;4.90;99.90;;;;;;5005090;28;20041;-82
2022/11/12 05:47:02;;;;;;;0.60;0.60;;;4.80;99.90;;;;;;5006221;28;19924;-81
2022/11/12 05:49:28;;;;;;;0.60;0.60;;;4.90;99.90;;;;;;5028803;28;20034;-82
2022/11/12 05:51:54;;;;;;;0.60;0.60;;;4.90;99.90;;;;;;5028508;28;20045;-81
2022/11/12 05:54:19;;;;;;;0.50;0.50;;;5.00;99.90;;;;;;5026134;28;20060;-81
2022/11/12 05:56:46;;;;;;;0.75;0.75;;;5.00;99.90;;;;;;5025863;28;20049;-81
2022/11/12 05:59:12;;;;;;;2.45;0.82;;;5.10;99.90;;;;;;5026427;28;20044;-81
2022/11/12 06:01:45;;;;;;;0.57;0.57;;;5.10;99.90;;;;;;5008333;28;20085;-82
2022/11/12 06:04:31;;;;;;;0.50;0.50;;;5.10;99.90;;;;;;5019878;28;20049;-82
2022/11/12 06:06:57;;;;;;;0.70;0.70;;;5.10;99.90;;;;;;5021370;28;20060;-81
2022/11/12 06:09:24;;;;;;;0.60;0.60;;;5.10;99.90;;;;;;5011049;28;20073;-82
2022/11/12 06:11:49;;;;;;;0.88;0.80;;;4.90;99.90;;;;;;5043252;28;20045;-81
2022/11/12 06:14:15;;;;;;;0.70;0.70;;;4.80;99.90;;;;;;5027029;28;20057;-80
2022/11/12 06:16:41;;;;;;;0.65;0.65;;;4.90;99.90;;;;;;5026880;28;20045;-81
2022/11/12 06:19:06;;;;;;;0.60;0.60;;;4.60;99.90;;;;;;5025596;28;20041;-81
2022/11/12 06:21:35;;;;;;;1.02;1.02;;;4.50;99.90;;;;;;5027692;28;20135;-81
2022/11/12 06:24:01;;;;;;;0.50;0.50;;;4.80;99.90;;;;;;5023482;28;20091;-80
2022/11/12 06:26:29;;;;;;;0.60;0.60;;;4.70;99.90;;;;;;5024042;28;20037;-81
2022/11/12 06:28:56;;;;;;;0.60;0.60;;;4.20;99.90;;;;;;5024405;28;20045;-80
2022/11/12 06:31:21;;;;;;;;;;;4.10;99.90;;;;;;5008490;28;20045;-81
2022/11/12 06:33:48;;;;;;;0.65;0.65;;;4.10;99.90;;;;;;5024315;28;19928;-80
2022/11/12 06:36:16;;;;;;;0.80;0.80;;;4.00;99.90;;;;;;5008468;28;20040;-81
2022/11/12 06:38:43;;;;;;;0.60;0.60;;;4.00;99.90;;;;;;5025205;28;20052;-82
2022/11/12 06:41:10;;;;;;;0.73;0.73;;;3.90;99.90;;;;;;5020218;28;20112;-82
2022/11/12 06:43:36;;;;;;;0.90;0.90;;;3.90;99.90;;;;;;5008896;28;20050;-81
2022/11/12 06:46:15;;;;;;;0.60;0.60;;;4.10;99.90;;;;;;5024457;28;20128;-82
2022/11/12 06:48:46;;;;;;;0.70;0.70;;;3.80;99.90;;;;;;5039096;28;20076;-80
2022/11/12 06:51:20;;;;;;;0.60;0.60;;;3.80;99.90;;;;;;5025411;28;20510;-82
2022/11/12 06:53:46;;;;;;;0.57;0.57;;;3.90;99.90;;;;;;5027214;28;20050;-82
2022/11/12 06:56:12;;;;;;;;;;;3.80;99.90;;;;;;5028793;28;20049;-82
2022/11/12 06:58:38;;;;;;;0.60;0.60;;;3.80;99.90;;;;;;5029112;28;19943;-82
2022/11/12 07:01:14;;;;;;;0.60;0.60;;;3.90;99.90;;;;;;5027940;28;20037;-81
2022/11/12 07:03:42;;;;;;;1.63;1.52;;;4.10;99.90;;;;;;5027505;28;20041;-81
2022/11/12 07:06:14;;;;;;;0.80;0.80;;;4.10;99.90;;;;;;5031829;28;20106;-81
2022/11/12 07:08:41;;;;;;;0.60;0.60;;;4.20;99.90;;;;;;5013141;28;20041;-81
2022/11/12 07:11:07;;;;;;;0.63;0.63;;;4.30;99.90;;;;;;5027595;28;20398;-81
2022/11/12 07:13:33;;;;;;;0.65;0.65;;;4.50;99.90;;;;;;5026142;28;20052;-81
2022/11/12 07:16:00;;;;;;;0.80;0.80;;;4.70;99.90;;;;;;5032805;28;20175;-82
2022/11/12 07:18:26;;;;;;;1.00;1.00;;;4.90;99.90;;;;;;5019865;28;20051;-82
2022/11/12 07:21:00;;;;;;;0.90;0.90;;;5.00;99.90;;;;;;5022984;28;20076;-81
2022/11/12 07:23:28;;;;;;;1.98;1.67;;;5.10;99.90;;;;;;5018579;28;20049;-81
2022/11/12 07:25:56;;;;;;;0.50;0.50;;;5.30;99.90;;;;;;5022271;28;20103;-82
2022/11/12 07:28:22;;;;;;;3.30;3.05;;;5.40;99.90;;;;;;5023431;28;20041;-82
2022/11/12 07:31:01;;;;;;;0.80;0.80;;;5.50;99.90;;;;;;5022149;28;20091;-81
2022/11/12 07:33:29;;;;;;;0.63;0.63;;;5.60;99.90;;;;;;5024324;28;20113;-81
2022/11/12 07:35:58;;;;;;;0.68;0.68;;;5.70;99.90;;;;;;5019059;28;20045;-82
2022/11/12 07:38:25;;;;;;;0.68;0.68;;;6.00;99.90;;;;;;5038892;28;20041;-81
2022/11/12 07:40:50;;;;;;;0.60;0.60;;;5.80;99.90;;;;;;5021202;28;20045;-82
2022/11/12 07:43:16;;;;;;;1.10;1.08;;;6.00;99.90;;;;;;5020444;28;20099;-82
2022/11/12 07:45:42;;;;;;;0.43;0.43;;;6.00;99.90;;;;;;5020665;28;20045;-82
2022/11/12 07:48:08;;;;;;;1.42;1.33;;;5.90;99.90;;;;;;5002473;28;20041;-82
2022/11/12 07:50:33;;;;;;;0.50;0.50;;;6.00;99.90;;;;;;5019758;28;20710;-82
2022/11/12 07:52:59;;;;;;;0.50;0.50;;;6.00;99.90;;;;;;5021389;28;20045;-81
2022/11/12 07:55:25;;;;;;;0.50;0.50;;;6.00;99.90;;;;;;5022242;28;20548;-82
2022/11/12 07:57:52;;;;;;;0.70;0.70;;;6.00;99.90;;;;;;5022080;28;20526;-82
2022/11/12 08:00:18;;;;;;;2.40;2.20;;;6.00;99.90;;;;;;5038708;28;20068;-82
2022/11/12 08:02:44;;;;;;;2.58;2.47;;;6.00;99.90;;;;;;5021518;28;20053;-82
2022/11/12 08:05:09;;;;;;;0.68;0.68;;;6.10;99.90;;;;;;5003711;28;20048;-82
2022/11/12 08:07:35;;;;;;;0.60;0.60;;;6.20;99.90;;;;;;5020819;28;20091;-82
2022/11/12 08:10:01;;;;;;;1.83;1.42;;;6.20;99.90;;;;;;5023948;28;20649;-81
2022/11/12 08:12:33;;;;;;;1.30;1.25;;;6.30;99.90;;;;;;5004316;28;20048;-82
2022/11/12 08:14:58;;;;;;;2.53;2.33;;;6.30;99.90;;;;;;5020804;28;20044;-81
2022/11/12 08:17:24;;;;;;;1.02;1.02;;;6.40;99.90;;;;;;5021777;28;20147;-81
2022/11/12 08:19:54;;;;;;;0.95;0.95;;;6.50;99.90;;;;;;4987458;28;20436;-81
2022/11/12 08:22:20;;;;;;;1.05;1.02;;;6.50;99.90;;;;;;5023086;28;21282;-81
2022/11/12 08:24:49;;;;;;;0.63;0.63;;;6.60;99.90;;;;;;5023686;28;20040;-82
2022/11/12 08:27:14;;;;;;;0.65;0.65;;;6.60;99.90;;;;;;5023202;28;20041;-82
2022/11/12 08:29:40;;;;;;;0.90;0.90;;;6.70;99.90;;;;;;5022297;28;20095;-82
2022/11/12 08:32:05;;;;;;;0.50;0.50;;;6.70;99.90;;;;;;5007517;28;20045;-82
2022/11/12 08:34:31;;;;;;;0.57;0.57;;;6.70;99.90;;;;;;5006973;28;20124;-81
2022/11/12 08:36:57;;;;;;;0.68;0.68;;;6.80;99.90;;;;;;5006647;28;20033;-82
2022/11/12 08:39:22;;;;;;;1.00;1.00;;;6.80;99.90;;;;;;5003429;28;20056;-83
2022/11/12 08:41:48;;;;;;;1.40;1.30;;;6.90;99.90;;;;;;5021463;28;20461;-83
2022/11/12 08:44:14;;;;;;;1.83;1.73;;;7.00;99.90;;;;;;5020325;28;20411;-81
2022/11/12 08:46:39;;;;;;;0.70;0.70;;;7.00;99.90;;;;;;5028596;28;20116;-81
2022/11/12 08:49:05;;;;;;;1.55;1.27;;;7.00;99.90;;;;;;5029064;28;20485;-81
2022/11/12 08:51:31;;;;;;;0.88;0.88;;;7.10;99.90;;;;;;5022469;28;20565;-83
2022/11/12 08:53:57;;;;;;;1.40;0.93;;;7.10;99.90;;;;;;5022108;28;20064;-82
2022/11/12 08:56:22;;;;;;;0.70;0.70;;;7.20;99.90;;;;;;5021375;28;20053;-81
2022/11/12 08:58:48;;;;;;;1.05;1.05;;;7.20;99.90;;;;;;5020984;28;20045;-82
2022/11/12 09:01:14;;;;;;;0.68;0.68;;;7.30;99.90;;;;;;5004564;28;20049;-82
2022/11/12 09:03:39;;;;;;;1.15;1.10;;;7.30;99.90;;;;;;5022144;28;20111;-82
2022/11/12 09:06:05;;;;;;;1.20;1.20;;;7.40;99.90;;;;;;5020436;28;20699;-82
2022/11/12 09:08:32;;;;;;;;;;;7.40;99.90;;;;;;5023835;28;20057;-81
2022/11/12 09:10:58;;;;;;;1.77;0.98;;;6.30;99.90;;;;;;5023920;28;19979;-82
2022/11/12 09:13:24;;;;;;;0.98;0.95;;;7.50;99.90;;;;;;5023468;28;20360;-82
2022/11/12 09:15:49;;;;;;;0.50;0.50;;;7.60;99.90;;;;;;5038798;28;20111;-82
2022/11/12 09:18:17;;;;;;;0.40;0.40;;;7.60;99.90;;;;;;5002809;28;20166;-82
2022/11/12 09:20:44;;;;;;;0.50;0.50;;;7.60;99.90;;;;;;5022071;28;20467;-82
2022/11/12 09:23:12;;;;;;;0.90;0.90;;;7.70;99.90;;;;;;5007441;28;20045;-82
2022/11/12 09:25:39;;;;;;;0.80;0.80;;;7.80;99.90;;;;;;5022544;28;20130;-82
2022/11/12 09:28:11;;;;;;;1.83;1.77;;;7.80;99.90;;;;;;5022872;28;20048;-82
2022/11/12 09:30:40;;;;;;;2.08;1.98;;;7.90;99.90;;;;;;5024750;28;20037;-83
2022/11/12 09:33:05;;;;;;;0.80;0.80;;;8.00;99.90;;;;;;5024780;28;20038;-82
2022/11/12 09:35:31;;;;;;;0.98;0.98;;;8.00;99.90;;;;;;5002125;28;20423;-82
2022/11/12 09:37:58;;;;;;;;;;;8.00;99.90;;;;;;5015428;28;20053;-82
2022/11/12 09:40:41;;;;;;;0.60;0.60;;;8.00;99.90;;;;;;5003479;28;19975;-81
2022/11/12 09:43:31;;;;;;;2.00;1.85;;;8.10;99.90;;;;;;5021639;28;20395;-81
2022/11/12 09:46:16;;;;;;;0.57;0.57;;;8.10;99.90;;;;;;5019857;28;20041;-82
2022/11/12 09:48:46;;;;;;;0.82;0.82;;;8.20;99.90;;;;;;5003119;28;20060;-82
2022/11/12 09:51:36;;;;;;;0.55;0.55;;;8.20;99.90;;;;;;5017852;28;20669;-81
2022/11/12 09:54:16;;;;;;;0.47;0.47;;;8.20;99.90;;;;;;5022033;28;20061;-82
2022/11/12 09:56:42;;;;;;;0.70;0.70;;;8.20;99.90;;;;;;5021760;28;20510;-82
2022/11/12 09:59:12;;;;;;;2.35;1.60;;;8.20;99.90;;;;;;5020472;28;20041;-82
2022/11/12 10:01:53;;;;;;;0.50;0.50;;;8.20;99.90;;;;;;5004503;28;20057;-82
2022/11/12 10:04:38;;;;;;;0.73;0.73;;;8.20;99.90;;;;;;5002558;28;20042;-82
2022/11/12 10:07:37;;;;;;;0.63;0.63;;;8.20;99.90;;;;;;5019802;28;20094;-82
2022/11/12 10:10:40;;;;;;;0.55;0.55;;;8.20;99.90;;;;;;5020194;28;20056;-82
2022/11/12 10:13:21;;;;;;;0.93;0.70;;;8.20;99.90;;;;;;5007390;28;20128;-82
2022/11/12 10:18:58;;;;;;;0.45;0.45;;;8.40;99.90;;;;;;5021890;28;20051;-81
2022/11/12 10:21:52;;;;;;;0.98;0.98;;;8.30;99.90;;;;;;5017230;28;20084;-82
2022/11/12 10:24:20;;;;;;;1.15;1.08;;;8.30;99.90;;;;;;5018860;28;20052;-81
2022/11/12 10:26:47;;;;;;;1.17;1.17;;;8.20;99.90;;;;;;5019353;28;20056;-81
2022/11/12 10:29:30;;;;;;;0.57;0.57;;;8.30;99.90;;;;;;5016345;28;20415;-83
2022/11/12 10:31:59;;;;;;;0.82;0.82;;;8.30;99.90;;;;;;5016848;28;20041;-82
2022/11/12 10:34:25;;;;;;;0.43;0.43;;;8.40;99.90;;;;;;5017076;28;20183;-82
2022/11/12 10:36:56;;;;;;;0.70;0.60;;;8.30;99.90;;;;;;5016612;28;20418;-80
2022/11/12 10:39:35;;;;;;;0.73;0.73;;;8.30;99.90;;;;;;5013511;28;20045;-81
2022/11/12 10:42:09;;;;;;;0.73;0.73;;;8.30;99.90;;;;;;5011235;28;20120;-82
2022/11/12 10:44:35;;;;;;;0.80;0.80;;;8.30;99.90;;;;;;5012134;28;20159;-81
2022/11/12 10:47:19;;;;;;;;;;;8.30;99.90;;;;;;5022659;28;20048;-83
2022/11/12 10:50:15;;;;;;;0.88;0.88;;;8.30;99.90;;;;;;5020068;28;19979;-82
2022/11/12 10:52:54;;;;;;;0.65;0.65;;;8.30;99.90;;;;;;5018875;28;20514;-81
2022/11/12 10:55:24;;;;;;;2.67;1.13;;;8.30;99.90;;;;;;5015693;28;20053;-82
2022/11/12 10:58:08;;;;;;;4.18;1.35;;;8.30;99.90;;;;;;5014707;28;20190;-82
2022/11/12 11:00:35;;;;;;;0.88;0.88;;;8.30;99.90;;;;;;5013978;28;20174;-81
2022/11/12 11:03:05;;;;;;;0.82;0.82;;;8.40;99.90;;;;;;5012106;28;20085;-82
2022/11/12 11:05:57;;;;;;;0.50;0.50;;;8.30;99.90;;;;;;5013813;28;20062;-82
2022/11/12 11:08:36;;;;;;;1.15;1.05;;;8.30;99.90;;;;;;5029554;28;20534;-82
2022/11/12 11:11:19;;;;;;;1.77;1.67;;;8.30;99.90;;;;;;5012135;28;20077;-82
2022/11/12 11:13:47;;;;;;;2.28;0.98;;;8.30;99.90;;;;;;5015613;28;20052;-83
2022/11/12 11:16:18;;;;;;;1.25;1.15;;;8.40;99.90;;;;;;4998870;28;20052;-81
2022/11/12 11:19:04;;;;;;;0.75;0.75;;;8.80;99.90;;;;;;5015314;28;20371;-82
2022/11/12 11:21:49;;;;;;;0.50;0.50;;;8.50;99.90;;;;;;5011988;28;20237;-80
2022/11/12 11:24:20;;;;;;;0.60;0.60;;;8.60;99.90;;;;;;5014941;28;20053;-81
2022/11/12 11:27:04;;;;;;;0.40;0.40;;;8.60;99.90;;;;;;5015481;28;20061;-82
2022/11/12 11:29:57;;;;;;;0.60;0.60;;;8.50;99.90;;;;;;5014861;28;20087;-82
2022/11/12 11:32:41;;;;;;;;;;;8.50;99.90;;;;;;5015338;28;20041;-82
2022/11/12 11:35:30;;;;;;;0.60;0.60;;;8.40;99.90;;;;;;5013789;28;19956;-82
2022/11/12 11:38:21;;;;;;;1.08;0.88;;;8.40;99.90;;;;;;5011099;28;20498;-81
2022/11/12 11:41:14;;;;;;;0.50;0.50;;;8.50;99.90;;;;;;5010347;28;20576;-82
2022/11/12 11:43:47;;;;;;;0.60;0.60;;;8.50;99.90;;;;;;5014970;28;20068;-81
2022/11/12 11:46:33;;;;;;;1.05;0.70;;;8.60;99.90;;;;;;5019792;28;20411;-81
2022/11/12 11:49:09;;;;;;;0.63;0.60;;;8.70;99.90;;;;;;5018475;28;20401;-81
2022/11/12 11:51:49;;;;;;;0.80;0.80;;;8.70;99.90;;;;;;5020221;28;20037;-82
2022/11/12 11:54:44;;;;;;;0.50;0.50;;;8.90;99.90;;;;;;5017506;28;20443;-82
2022/11/12 11:57:20;;;;;;;0.47;0.47;;;9.10;99.90;;;;;;5017091;28;20395;-82
2022/11/12 11:59:58;;;;;;;0.73;0.73;;;9.20;99.90;;;;;;5000979;28;20057;-80
2022/11/12 12:02:42;;;;;;;1.25;1.25;;;9.30;99.90;;;;;;5017478;28;20058;-82
2022/11/12 12:05:26;;;;;;;0.40;0.40;;;9.30;99.90;;;;;;5032685;28;20065;-82
2022/11/12 12:08:03;;;;;;;0.68;0.68;;;9.30;99.90;;;;;;5016805;28;20048;-82
2022/11/12 12:10:53;;;;;;;0.90;0.90;;;9.30;99.90;;;;;;5019403;28;20041;-83
2022/11/12 12:13:45;;;;;;;0.70;0.70;;;9.20;99.90;;;;;;5021914;28;20049;-82
2022/11/12 12:16:35;;;;;;;0.40;0.40;;;9.10;99.90;;;;;;4997338;28;20049;-82
2022/11/12 12:19:21;;;;;;;3.35;1.50;;;9.20;99.90;;;;;;5013404;28;20049;-82
2022/11/12 12:21:49;;;;;;;1.50;1.42;;;9.30;99.90;;;;;;5016679;28;20112;-82
2022/11/12 12:24:30;;;;;;;0.43;0.43;;;9.30;99.90;;;;;;5011336;28;20100;-81
2022/11/12 12:27:28;;;;;;;0.50;0.45;;;9.40;99.90;;;;;;5014747;28;20049;-82
2022/11/12 12:30:03;;;;;;;0.65;0.65;;;9.50;99.90;;;;;;5016361;28;20051;-81
2022/11/12 12:32:48;;;;;;;0.75;0.75;;;9.60;99.90;;;;;;5013928;28;20049;-82
2022/11/12 12:35:32;;;;;;;0.57;0.57;;;9.60;99.90;;;;;;5013647;28;20099;-82
2022/11/12 12:38:21;;;;;;;0.82;0.82;;;9.70;99.90;;;;;;5016560;28;20045;-82
2022/11/12 12:40:51;;;;;;;1.05;0.95;;;9.70;99.90;;;;;;5016445;28;20041;-81
2022/11/12 12:43:25;;;;;;;0.98;0.98;;;9.70;99.90;;;;;;4995081;28;20136;-82
2022/11/12 12:45:51;;;;;;;0.73;0.73;;;9.80;99.90;;;;;;5013684;28;21400;-82
2022/11/12 12:48:22;;;;;;;1.67;1.58;;;9.80;99.90;;;;;;5011927;28;20033;-81
2022/11/12 12:50:49;;;;;;;1.23;1.13;;;9.90;99.90;;;;;;5011558;28;20049;-81
2022/11/12 12:53:26;;;;;;;0.57;0.57;;;9.90;99.90;;;;;;5014395;28;20061;-82
2022/11/12 12:55:52;;;;;;;;;;;9.90;99.90;;;;;;5029416;28;20048;-82
2022/11/12 12:58:31;;;;;;;1.35;1.00;;;9.90;99.90;;;;;;5014957;28;20326;-82
2022/11/12 13:01:06;;;;;;;0.60;0.60;;;9.80;99.90;;;;;;5010947;28;21330;-82
2022/11/12 13:03:41;;;;;;;0.95;0.95;;;9.60;99.90;;;;;;5013403;28;20058;-82
2022/11/12 13:06:22;;;;;;;0.70;0.70;;;9.60;99.90;;;;;;5017731;28;20056;-82
2022/11/12 13:09:19;;;;;;;1.35;0.93;;;9.60;99.90;;;;;;4998633;28;20045;-81
2022/11/12 13:14:30;;;;;;;0.50;0.50;;;9.50;99.90;;;;;;5011766;28;20386;-82
2022/11/12 13:17:01;;;;;;;0.63;0.63;;;9.50;99.90;;;;;;5018954;28;20045;-82
2022/11/12 13:19:32;;;;;;;0.55;0.55;;;9.50;99.90;;;;;;5021961;28;20037;-82
2022/11/12 13:22:16;;;;;;;0.70;0.70;;;9.60;99.90;;;;;;5002789;28;20068;-82
2022/11/12 13:25:07;;;;;;;0.52;0.52;;;9.80;99.90;;;;;;5018503;28;20809;-83
2022/11/12 13:27:39;;;;;;;1.98;1.88;;;10.00;99.90;;;;;;5019046;28;20071;-82
2022/11/12 13:30:15;;;;;;;1.17;0.88;;;10.10;99.90;;;;;;5015081;28;20195;-83
2022/11/12 13:32:47;;;;;;;1.00;1.00;;;10.20;99.90;;;;;;5015327;28;21563;-82
2022/11/12 13:35:16;;;;;;;1.20;1.15;;;10.20;99.90;;;;;;5015646;28;20446;-83
2022/11/12 13:37:50;;;;;;;0.30;0.30;;;10.10;99.90;;;;;;5014989;28;20099;-82
2022/11/12 13:40:28;;;;;;;0.55;0.55;;;10.10;99.90;;;;;;5014071;28;20103;-82
2022/11/12 13:43:14;;;;;;;0.40;0.40;;;10.00;99.90;;;;;;5037724;28;20073;-81